Terminal Aerodrome Forecast
Issued by NWS Binghamton, NY

Home | Current Version | Previous Version | Text Only | Print | Product List | Glossary On
Versions: 1 2 3 4 5 6 7 8 9 10 11 12 13 14 15 16 17 18 19 20 21 22 23 24
000
FTUS41 KBGM 020705 AAC
TAFBGM
TAF AMD
KBGM 020705Z 0207/0306 VRB02KT 1/2SM FG SKC
      TEMPO 0207/0211 1/4SM FG VV001
     FM021400 VRB03KT P6SM SKC
     FM021600 30005KT P6SM SCT030=

USA.gov is the U.S. government's official web portal to all federal, state and local government web resources and services.